createdAt,value
2023-08-31T00:01:53.859Z,0.50
2023-08-31T00:12:15.801Z,0.50
2023-08-31T00:22:38.948Z,0.50
2023-08-31T00:33:01.858Z,0.40
2023-08-31T00:43:25.432Z,0.45
2023-08-31T00:53:49.409Z,0.50
2023-08-31T01:04:22.756Z,0.50
2023-08-31T01:14:47.113Z,0.50
2023-08-31T01:25:11.290Z,0.50
2023-08-31T01:35:39.989Z,0.50
2023-08-31T01:46:04.097Z,0.50
2023-08-31T01:56:27.882Z,0.50
2023-08-31T02:06:51.234Z,0.50
2023-08-31T02:17:13.011Z,0.50
2023-08-31T02:27:37.685Z,0.50
2023-08-31T02:37:59.889Z,0.40
2023-08-31T02:48:24.073Z,0.50
2023-08-31T02:58:45.793Z,0.50
2023-08-31T03:09:10.867Z,0.50
2023-08-31T03:19:33.141Z,0.50
2023-08-31T03:29:56.198Z,0.50
2023-08-31T03:40:18.163Z,0.50
2023-08-31T03:50:41.370Z,0.50
2023-08-31T04:01:03.102Z,0.50
2023-08-31T04:11:27.449Z,0.60
2023-08-31T04:21:50.088Z,0.50
2023-08-31T04:32:13.087Z,0.50
2023-08-31T04:42:35.358Z,0.50
2023-08-31T04:52:58.166Z,0.50
2023-08-31T05:03:19.490Z,0.40
2023-08-31T05:13:44.122Z,0.50
2023-08-31T05:24:06.108Z,0.50
2023-08-31T05:34:33.469Z,0.40
2023-08-31T05:44:55.372Z,0.50
2023-08-31T05:55:18.774Z,0.50
2023-08-31T06:05:40.438Z,0.50
2023-08-31T06:16:03.311Z,0.50
2023-08-31T06:26:25.974Z,0.50
2023-08-31T06:36:48.930Z,0.50
2023-08-31T06:47:10.955Z,0.50
2023-08-31T06:57:33.784Z,0.40
2023-08-31T07:07:57.306Z,0.50
2023-08-31T07:18:21.114Z,0.50
2023-08-31T07:28:44.089Z,0.50
2023-08-31T07:39:08.167Z,0.50
2023-08-31T07:49:29.572Z,0.50
2023-08-31T07:59:52.592Z,0.47
2023-08-31T08:10:15.640Z,0.50
2023-08-31T08:20:38.545Z,0.43
2023-08-31T08:31:04.332Z,0.45
2023-08-31T08:41:31.008Z,0.45
2023-08-31T08:51:53.336Z,0.40
2023-08-31T09:02:16.285Z,0.40
2023-08-31T09:12:40.146Z,0.40
2023-08-31T09:23:03.568Z,0.30
2023-08-31T09:33:28.339Z,0.40
2023-08-31T09:54:15.889Z,0.30
2023-08-31T10:04:40.602Z,0.40
2023-08-31T10:25:27.734Z,0.30
2023-08-31T10:35:54.242Z,0.20
2023-08-31T10:46:33.269Z,0.30
2023-08-31T10:57:07.902Z,0.40
2023-08-31T11:07:31.746Z,0.50
2023-08-31T11:17:55.280Z,0.50
2023-08-31T11:28:50.639Z,0.43
2023-08-31T11:39:12.784Z,0.40
2023-08-31T11:49:35.737Z,0.40
2023-08-31T11:59:58.100Z,0.40
2023-08-31T12:10:22.353Z,0.40
2023-08-31T12:20:48.168Z,0.30
2023-08-31T12:31:11.173Z,0.20
2023-08-31T12:41:32.970Z,0.30
2023-08-31T12:51:56.370Z,0.32
2023-08-31T13:02:18.041Z,0.40
2023-08-31T13:12:41.170Z,0.40
2023-08-31T13:23:04.099Z,0.30
2023-08-31T13:33:29.665Z,0.15
2023-08-31T13:43:52.898Z,0.20
2023-08-31T13:54:21.113Z,0.20
2023-08-31T14:04:43.056Z,0.40
2023-08-31T14:15:07.834Z,0.40
2023-08-31T14:25:29.487Z,0.40
2023-08-31T14:35:54.322Z,0.50
2023-08-31T14:46:16.390Z,0.30
2023-08-31T14:56:39.380Z,0.20
2023-08-31T15:07:01.354Z,0.20
2023-08-31T15:17:24.488Z,0.20
2023-08-31T15:27:45.901Z,0.25
2023-08-31T15:38:09.528Z,0.30
2023-08-31T15:48:32.340Z,0.30
2023-08-31T15:58:55.343Z,0.30
2023-08-31T16:09:16.903Z,0.30
2023-08-31T16:19:39.918Z,0.40
2023-08-31T16:30:01.458Z,0.40
2023-08-31T16:40:24.712Z,0.40
2023-08-31T16:50:47.543Z,0.40
2023-08-31T17:01:10.872Z,0.30
2023-08-31T17:11:35.047Z,0.40
2023-08-31T17:21:58.381Z,0.43
2023-08-31T17:32:21.086Z,0.50
2023-08-31T17:42:44.373Z,0.50
2023-08-31T17:53:07.023Z,0.50
2023-08-31T18:03:30.221Z,0.60
2023-08-31T18:13:55.091Z,0.55
2023-08-31T18:24:20.275Z,0.50
2023-08-31T18:34:41.898Z,0.52
2023-08-31T18:45:06.716Z,0.70
2023-08-31T18:55:29.616Z,0.50
2023-08-31T19:05:53.153Z,0.60
2023-08-31T19:16:16.952Z,0.60
2023-08-31T19:26:42.788Z,0.60
2023-08-31T19:37:07.324Z,0.50
2023-08-31T19:47:30.273Z,0.50
2023-08-31T19:57:55.018Z,0.60
2023-08-31T20:08:18.620Z,0.70
2023-08-31T20:18:40.431Z,0.57
2023-08-31T20:29:04.958Z,0.60
2023-08-31T20:39:28.520Z,0.50
2023-08-31T20:49:51.694Z,0.50
2023-08-31T21:00:15.285Z,0.60
2023-08-31T21:10:38.028Z,0.60
2023-08-31T21:20:59.676Z,0.60
2023-08-31T21:31:22.681Z,0.60
2023-08-31T21:41:44.235Z,0.60
2023-08-31T21:52:09.520Z,0.60
2023-08-31T22:02:31.207Z,0.50
2023-08-31T22:12:55.243Z,0.60
2023-08-31T22:23:17.452Z,0.50
2023-08-31T22:33:41.036Z,0.60
2023-08-31T22:44:03.546Z,0.52
2023-08-31T22:54:26.357Z,0.50
2023-08-31T23:04:47.980Z,0.60
2023-08-31T23:15:11.978Z,0.60
2023-08-31T23:25:33.881Z,0.50
2023-08-31T23:35:57.114Z,0.60
2023-08-31T23:46:18.464Z,0.60
2023-08-31T23:56:41.336Z,0.50
